Storm Events Database

Event Details

Event Hail
Magnitude 2.00 in.
State TEXAS
County/Area COLLIN
WFO FWD
Report Source Amateur Radio
NCDC Data Source CSV
Begin Date 2010-10-24 15:41:00.0 CST-6
Begin Location 4NE FARMERSVILLE
Begin Lat/Lon 33.2/-96.32
End Date 2010-10-24 15:41:00.0 CST-6
Deaths Direct/Indirect 0/0 (fatality details below, when available...)
Injuries Direct/Indirect 0/0
Property Damage 0.50K
Crop Damage 0.00K
Episode Narrative Severe thunderstorms developed along and east of Interstate 35 in association with a dryline across north Texas. The storms produced large amounts of hail which damaged hundreds, if not thousands, of roofs. In Hunt County alone, emergency officials estimated nearly 500 homes had some form of roof damage. In addition, a strong EF2 tornado moved through Rice damaging the new intermediate school, several homes, derailing train cars and overturning vehicles on Interstate 45. A second EF0 tornado damaged 10 homes near Lone Oak.
Event Narrative Hen egg size hail was reported at FM 2194 and CR 658 northeast of Farmersville.


     ‚Äč



All events for this episode:

Location County/Zone St. Date Time T.Z. Type Mag Dth Inj PrD CrD
Totals: 0 4 1.872M 0.00K
EMORY RAINS CO. TX 10/24/2010 12:48 CST-6 Hail 1.00 in. 0 0 0.00K 0.00K
SULPHUR SPGS HOPKINS CO. TX 10/24/2010 13:00 CST-6 Hail 1.00 in. 0 0 2.00K 0.00K
PICKTON HOPKINS CO. TX 10/24/2010 13:25 CST-6 Hail 0.75 in. 0 0 0.00K 0.00K
MOODY MCLENNAN CO. TX 10/24/2010 15:35 CST-6 Hail 0.88 in. 0 0 0.00K 0.00K
MERIT HUNT CO. TX 10/24/2010 15:40 CST-6 Hail 1.00 in. 0 0 1.00K 0.00K
FARMERSVILLE COLLIN CO. TX 10/24/2010 15:41 CST-6 Hail 2.00 in. 0 0 0.50K 0.00K
CELESTE HUNT CO. TX 10/24/2010 15:46 CST-6 Hail 1.75 in. 0 0 20.00K 0.00K
WAGNER HUNT CO. TX 10/24/2010 15:48 CST-6 Hail 0.88 in. 0 0 0.00K 0.00K
MOODY MCLENNAN CO. TX 10/24/2010 15:49 CST-6 Hail 1.00 in. 0 0 0.00K 0.00K
LORENA MCLENNAN CO. TX 10/24/2010 15:50 CST-6 Hail 0.75 in. 0 0 0.00K 0.00K
SPRING VLY MCLENNAN CO. TX 10/24/2010 15:52 CST-6 Hail 1.75 in. 0 0 3.00K 0.00K
GREENVILLE HUNT CO. TX 10/24/2010 15:54 CST-6 Hail 1.00 in. 0 0 5.00K 0.00K
LORENA MCLENNAN CO. TX 10/24/2010 16:03 CST-6 Hail 1.75 in. 0 0 30.00K 0.00K
NORTH PRAIRIE FALLS CO. TX 10/24/2010 16:06 CST-6 Hail 1.00 in. 0 0 0.00K 0.00K
SOUTH SULPHER HUNT CO. TX 10/24/2010 16:11 CST-6 Hail 1.00 in. 0 0 0.00K 0.00K
AVALON ELLIS CO. TX 10/24/2010 16:14 CST-6 Hail 1.75 in. 0 0 10.00K 0.00K
COMMERCE HUNT CO. TX 10/24/2010 16:20 CST-6 Hail 1.75 in. 0 0 100.00K 0.00K
AVALON ELLIS CO. TX 10/24/2010 16:23 CST-6 Hail 2.75 in. 0 0 10.00K 0.00K
DEPORT LAMAR CO. TX 10/24/2010 16:25 CST-6 Hail 1.00 in. 0 0 5.00K 0.00K
EMHOUSE NAVARRO CO. TX 10/24/2010 16:43 CST-6 Tornado EF2 0 4 1.000M 0.00K
MC COY KAUFMAN CO. TX 10/24/2010 16:48 CST-6 Hail 1.00 in. 0 0 0.00K 0.00K
OTTO FALLS CO. TX 10/24/2010 16:48 CST-6 Hail 1.75 in. 0 0 7.00K 0.00K
RICE NAVARRO CO. TX 10/24/2010 16:50 CST-6 Hail 3.00 in. 0 0 50.00K 0.00K
LONE OAK HUNT CO. TX 10/24/2010 16:52 CST-6 Hail 1.75 in. 0 0 15.00K 0.00K
WILLS PT VAN ZANDT CO. TX 10/24/2010 16:52 CST-6 Hail 0.75 in. 0 0 0.00K 0.00K
LONE OAK HUNT CO. TX 10/24/2010 17:00 CST-6 Tornado EF0 0 0 500.00K 0.00K
ALEY HENDERSON CO. TX 10/24/2010 17:18 CST-6 Hail 2.75 in. 0 0 17.00K 0.00K
ALEY HENDERSON CO. TX 10/24/2010 17:24 CST-6 Thunderstorm Wind 52 kts. EG 0 0 0.00K 0.00K
CEDAR CREEK RES NORT HENDERSON CO. TX 10/24/2010 17:27 CST-6 Hail 1.00 in. 0 0 5.00K 0.00K
EUREKA NAVARRO CO. TX 10/24/2010 17:32 CST-6 Thunderstorm Wind 52 kts. EG 0 0 0.00K 0.00K
POWELL NAVARRO CO. TX 10/24/2010 17:39 CST-6 Hail 1.00 in. 0 0 0.00K 0.00K
EUSTACE HENDERSON CO. TX 10/24/2010 17:40 CST-6 Hail 1.75 in. 0 0 25.00K 0.00K
KERENS NAVARRO CO. TX 10/24/2010 17:55 CST-6 Thunderstorm Wind 54 kts. EG 0 0 7.00K 0.00K
TRINIDAD HENDERSON CO. TX 10/24/2010 18:00 CST-6 Thunderstorm Wind 56 kts. EG 0 0 7.00K 0.00K
SULPHUR SPGS HOPKINS CO. TX 10/24/2010 18:24 CST-6 Hail 1.75 in. 0 0 30.00K 0.00K
CAYUGA ANDERSON CO. TX 10/24/2010 18:27 CST-6 Thunderstorm Wind 61 kts. EG 0 0 6.00K 0.00K
SPRINGFIELD ANDERSON CO. TX 10/24/2010 18:33 CST-6 Hail 1.00 in. 0 0 0.00K 0.00K
BRADFORD ANDERSON CO. TX 10/24/2010 18:41 CST-6 Hail 1.75 in. 0 0 13.00K 0.00K
BRUSHY CREEK ANDERSON CO. TX 10/24/2010 19:01 CST-6 Hail 1.00 in. 0 0 0.00K 0.00K
FRANKSTON ANDERSON CO. TX 10/24/2010 19:05 CST-6 Hail 1.75 in. 0 0 3.00K 0.00K
FINCASTLE HENDERSON CO. TX 10/24/2010 19:13 CST-6 Hail 0.88 in. 0 0 0.00K 0.00K
Totals: 0 4 1.872M 0.00K